Time;durP1;ratioP1;P1;durP2;ratioP2;P2;SDS_P1;SDS_P2;PMS_P1;PMS_P2;Temp;Humidity;BMP_temperature;BMP_pressure;BME280_temperature;BME280_humidity;BME280_pressure;Samples;Min_cycle;Max_cycle;Signal;HPM_P1;HPM_P2
2022/01/09 00:00:29;;;;;;;14.73;5.17;;;;;;;-4.27;70.22;99563.81;5017831;28;20130;-68
2022/01/09 00:02:59;;;;;;;13.03;5.40;;;;;;;-4.27;69.99;99561.16;5017106;28;20099;-67
2022/01/09 00:05:25;;;;;;;11.93;5.00;;;;;;;-4.29;70.13;99557.84;5010545;28;21654;-68
2022/01/09 00:07:53;;;;;;;16.27;5.20;;;;;;;-4.29;70.35;99555.16;5019470;28;20044;-68
2022/01/09 00:10:20;;;;;;;13.53;5.63;;;;;;;-4.26;70.07;99570.81;5012163;28;20124;-69
2022/01/09 00:12:48;;;;;;;14.23;5.43;;;;;;;-4.41;70.36;99578.81;5011426;28;20107;-69
2022/01/09 00:15:15;;;;;;;;;;;;;;;-4.29;70.22;99579.19;5009509;28;20540;-68
2022/01/09 00:17:41;;;;;;;17.40;6.15;;;;;;;-4.27;69.89;99563.81;5025948;28;19932;-68
2022/01/09 00:20:10;;;;;;;13.93;5.50;;;;;;;-4.37;70.28;99561.44;5029026;28;20108;-68
2022/01/09 00:22:46;;;;;;;15.87;5.87;;;;;;;-4.38;69.92;99553.59;5008330;28;20041;-68
2022/01/09 00:25:14;;;;;;;12.43;5.53;;;;;;;-4.46;69.96;99542.00;5025253;28;20124;-68
2022/01/09 00:27:40;;;;;;;12.98;5.40;;;;;;;-4.38;70.09;99546.41;5013968;28;20046;-67
2022/01/09 00:30:12;;;;;;;17.30;5.63;;;;;;;-4.37;69.71;99549.91;5019091;28;20049;-67
2022/01/09 00:32:40;;;;;;;15.93;5.37;;;;;;;-4.38;69.23;99538.41;5028775;28;20061;-68
2022/01/09 00:35:08;;;;;;;13.23;4.87;;;;;;;-4.43;69.69;99522.94;5020391;28;20042;-67
2022/01/09 00:37:37;;;;;;;13.20;5.10;;;;;;;-4.45;69.52;99538.31;5014390;28;20044;-67
2022/01/09 00:40:06;;;;;;;13.70;4.80;;;;;;;-4.44;69.19;99536.50;5016380;28;20068;-68
2022/01/09 00:42:32;;;;;;;15.30;4.70;;;;;;;-4.43;69.11;99543.47;5019227;28;20068;-68
2022/01/09 00:44:58;;;;;;;11.40;4.30;;;;;;;-4.42;68.93;99526.44;5029370;28;20091;-68
2022/01/09 00:47:25;;;;;;;15.03;4.90;;;;;;;-4.45;68.99;99506.28;5025943;28;20077;-67
2022/01/09 00:49:52;;;;;;;14.40;4.73;;;;;;;-4.43;68.99;99520.28;5020177;28;20069;-68
2022/01/09 00:52:18;;;;;;;15.02;4.88;;;;;;;-4.45;69.00;99532.97;5027145;28;20533;-67
2022/01/09 00:54:44;;;;;;;20.70;5.43;;;;;;;-4.41;68.93;99522.75;5020388;28;20456;-68
2022/01/09 00:57:10;;;;;;;13.20;4.57;;;;;;;-4.44;69.08;99515.94;5043832;28;20049;-67
2022/01/09 00:59:36;;;;;;;15.67;5.33;;;;;;;-4.42;68.82;99529.13;5039256;28;20057;-68
2022/01/09 01:02:03;;;;;;;13.07;4.90;;;;;;;-4.37;68.68;99528.53;5020502;28;20048;-68
2022/01/09 01:04:29;;;;;;;12.67;5.03;;;;;;;-4.51;68.96;99500.84;5026051;28;20093;-69
2022/01/09 01:06:57;;;;;;;13.13;4.70;;;;;;;-4.43;68.95;99519.47;5012644;28;20709;-69
2022/01/09 01:09:25;;;;;;;;;;;;;;;-4.57;69.28;99518.41;5013505;28;20052;-69
2022/01/09 01:11:52;;;;;;;18.17;5.40;;;;;;;-4.49;68.86;99522.84;5025848;28;19925;-69
2022/01/09 01:14:22;;;;;;;12.30;5.07;;;;;;;-4.49;68.96;99523.69;5036977;28;20046;-71
2022/01/09 01:16:49;;;;;;;13.80;5.10;;;;;;;-4.51;68.96;99509.69;5013807;28;20048;-70
2022/01/09 01:19:15;;;;;;;15.07;5.57;;;;;;;-4.39;68.75;99502.06;5015542;28;20138;-71
2022/01/09 01:21:41;;;;;;;13.43;5.20;;;;;;;-4.35;68.57;99495.31;5021217;28;20045;-71
2022/01/09 01:24:08;;;;;;;15.50;5.53;;;;;;;-4.42;68.59;99497.09;5019438;28;20057;-71
2022/01/09 01:26:35;;;;;;;13.77;5.47;;;;;;;-4.43;68.56;99509.59;5023470;28;20050;-71
2022/01/09 01:29:01;;;;;;;15.50;5.60;;;;;;;-4.43;68.46;99500.78;5014341;28;20493;-71
2022/01/09 01:31:27;;;;;;;18.17;5.93;;;;;;;-4.52;68.87;99496.53;5012634;28;20058;-71
2022/01/09 01:33:53;;;;;;;14.37;5.50;;;;;;;-4.48;68.72;99489.78;5027572;28;20085;-71
2022/01/09 01:36:20;;;;;;;17.00;5.37;;;;;;;-4.44;68.68;99488.44;5012172;28;20058;-70
2022/01/09 01:38:46;;;;;;;14.13;5.67;;;;;;;-4.47;68.84;99483.44;5012120;28;20137;-71
2022/01/09 01:41:14;;;;;;;17.33;5.67;;;;;;;-4.48;68.68;99490.63;5012158;28;20558;-71
2022/01/09 01:43:40;;;;;;;13.88;5.72;;;;;;;-4.47;68.50;99489.63;5011702;28;20065;-70
2022/01/09 01:46:06;;;;;;;13.63;5.40;;;;;;;-4.44;68.52;99483.91;4999441;28;20049;-71
2022/01/09 01:48:33;;;;;;;15.13;6.07;;;;;;;-4.47;68.55;99486.97;5026423;28;20045;-70
2022/01/09 01:50:59;;;;;;;13.83;5.60;;;;;;;-4.42;68.40;99481.88;5027376;28;20501;-71
2022/01/09 01:53:26;;;;;;;15.48;5.72;;;;;;;-4.38;68.42;99476.16;5030003;28;20111;-70
2022/01/09 01:55:55;;;;;;;13.40;5.43;;;;;;;-4.42;68.27;99476.53;5025464;28;20746;-71
2022/01/09 01:58:26;;;;;;;13.53;5.37;;;;;;;-4.49;68.57;99467.63;5019166;28;20045;-71
2022/01/09 02:00:54;;;;;;;17.97;6.40;;;;;;;-4.47;68.61;99462.94;5028445;28;20049;-71
2022/01/09 02:03:20;;;;;;;14.53;6.53;;;;;;;-4.50;68.48;99465.97;5031594;28;20524;-70
2022/01/09 02:05:48;;;;;;;16.67;6.43;;;;;;;-4.47;68.46;99459.41;5033780;28;20095;-70
2022/01/09 02:08:14;;;;;;;15.73;6.18;;;;;;;-4.49;68.44;99448.94;5006322;28;20045;-71
2022/01/09 02:10:42;;;;;;;19.77;6.53;;;;;;;-4.48;68.48;99455.09;5022018;28;20045;-69
2022/01/09 02:13:08;;;;;;;;;;;;;;;-4.53;68.71;99450.31;5018283;28;20522;-70
2022/01/09 02:15:41;;;;;;;16.13;6.43;;;;;;;-4.54;68.58;99443.31;5022838;28;19933;-70
2022/01/09 02:18:10;;;;;;;18.60;6.43;;;;;;;-4.47;68.43;99444.25;5004426;28;20119;-67
2022/01/09 02:20:39;;;;;;;19.20;7.07;;;;;;;-4.39;68.18;99439.81;5030267;28;20045;-67
2022/01/09 02:23:06;;;;;;;21.33;6.87;;;;;;;-4.38;68.19;99439.63;5021144;28;20072;-67
2022/01/09 02:25:35;;;;;;;19.63;6.83;;;;;;;-4.42;67.86;99439.16;5026482;28;20487;-66
2022/01/09 02:28:02;;;;;;;22.57;7.50;;;;;;;-4.36;68.01;99445.63;5017532;28;20042;-67
2022/01/09 02:30:32;;;;;;;19.52;7.03;;;;;;;-4.36;67.97;99432.25;5018832;28;20041;-67
2022/01/09 02:32:58;;;;;;;19.47;6.80;;;;;;;-4.41;67.93;99446.16;5048194;28;20137;-66
2022/01/09 02:35:26;;;;;;;19.90;5.93;;;;;;;-4.41;67.83;99461.38;5011248;28;20484;-67
2022/01/09 02:37:54;;;;;;;14.60;6.13;;;;;;;-4.44;68.19;99461.75;5013372;28;20529;-67
2022/01/09 02:40:22;;;;;;;19.30;5.97;;;;;;;-4.43;67.98;99455.38;5020779;28;20495;-67
2022/01/09 02:42:48;;;;;;;;;;;;;;;-4.42;67.82;99446.38;5034512;28;20138;-67
2022/01/09 02:45:16;;;;;;;19.63;6.40;;;;;;;-4.43;67.77;99436.72;5011370;28;19961;-67
2022/01/09 02:47:42;;;;;;;20.70;7.30;;;;;;;-4.36;67.61;99437.59;5024562;28;20157;-67
2022/01/09 02:50:27;;;;;;;27.03;8.07;;;;;;;-4.36;67.62;99436.78;5011758;28;20052;-67
2022/01/09 02:52:59;;;;;;;24.83;7.90;;;;;;;-4.38;67.26;99431.63;5015043;28;20041;-67
2022/01/09 02:55:26;;;;;;;20.60;7.13;;;;;;;-4.44;67.54;99443.06;4993941;28;20053;-66
2022/01/09 02:57:53;;;;;;;22.83;8.10;;;;;;;-4.41;67.51;99440.00;5011285;28;20056;-66
2022/01/09 03:00:21;;;;;;;25.70;8.73;;;;;;;-4.44;67.55;99427.03;5012530;28;20049;-67
2022/01/09 03:02:47;;;;;;;;;;;;;;;-4.38;67.51;99442.31;5017691;28;20049;-68
2022/01/09 03:05:14;;;;;;;22.43;8.43;;;;;;;-4.44;67.12;99435.88;5024807;28;19929;-67
2022/01/09 03:07:42;;;;;;;15.90;5.57;;;;;;;-4.41;67.02;99427.47;5009821;28;20049;-67
2022/01/09 03:10:11;;;;;;;17.15;5.65;;;;;;;-4.44;66.95;99421.72;5016465;28;20392;-67
2022/01/09 03:12:39;;;;;;;14.23;5.67;;;;;;;-4.39;66.75;99431.81;5015902;28;20081;-68
2022/01/09 03:15:07;;;;;;;16.93;6.47;;;;;;;-4.35;66.68;99427.78;5028097;28;20053;-69
2022/01/09 03:17:35;;;;;;;16.13;6.10;;;;;;;-4.41;66.51;99422.13;5011107;28;20080;-68
2022/01/09 03:20:02;;;;;;;21.07;6.57;;;;;;;-4.49;66.62;99418.75;5018990;28;20037;-69
2022/01/09 03:22:29;;;;;;;18.40;6.47;;;;;;;-4.40;66.43;99420.31;5018000;28;20050;-68
2022/01/09 03:24:55;;;;;;;19.20;5.87;;;;;;;-4.50;66.34;99427.78;5021878;28;20100;-69
2022/01/09 03:27:24;;;;;;;15.57;6.07;;;;;;;-4.47;66.22;99411.38;5013541;28;20045;-69
2022/01/09 03:29:50;;;;;;;13.33;5.70;;;;;;;-4.44;65.92;99424.38;5016281;28;20045;-68
2022/01/09 03:32:19;;;;;;;14.10;5.40;;;;;;;-4.43;65.62;99420.69;5034655;28;20128;-68
2022/01/09 03:34:45;;;;;;;14.27;5.33;;;;;;;-4.48;65.54;99418.56;5013863;28;20522;-68
2022/01/09 03:37:11;;;;;;;16.83;5.90;;;;;;;-4.43;65.42;99424.16;5026763;28;20065;-69
2022/01/09 03:39:37;;;;;;;15.53;5.87;;;;;;;-4.42;65.17;99412.47;5028619;28;20060;-69
2022/01/09 03:42:04;;;;;;;20.47;6.67;;;;;;;-4.38;64.78;99415.63;5029298;28;20200;-68
2022/01/09 03:44:32;;;;;;;14.68;5.05;;;;;;;-4.47;64.56;99398.88;5022836;28;20099;-68
2022/01/09 03:46:58;;;;;;;14.27;5.35;;;;;;;-4.35;64.48;99415.22;5028395;28;20051;-68
2022/01/09 03:49:28;;;;;;;15.10;5.87;;;;;;;-4.39;64.33;99399.78;5031401;28;20053;-69
2022/01/09 03:51:55;;;;;;;13.73;5.57;;;;;;;-4.40;64.26;99409.63;5022629;28;20514;-68
2022/01/09 03:54:23;;;;;;;15.70;5.40;;;;;;;-4.48;63.96;99397.22;5017497;28;20136;-69
2022/01/09 03:56:50;;;;;;;15.77;5.33;;;;;;;-4.50;64.02;99393.91;5022986;28;20049;-69
2022/01/09 03:59:16;;;;;;;12.90;4.97;;;;;;;-4.51;63.71;99408.28;5015631;28;20038;-69
2022/01/09 04:01:46;;;;;;;16.30;5.87;;;;;;;-4.51;63.51;99399.44;5017177;28;20077;-68
2022/01/09 04:04:13;;;;;;;14.97;5.10;;;;;;;-4.56;63.38;99386.63;5017663;28;20096;-68
2022/01/09 04:06:45;;;;;;;15.97;5.30;;;;;;;-4.51;63.49;99392.25;5028454;28;20127;-69
2022/01/09 04:09:19;;;;;;;18.83;5.60;;;;;;;-4.52;62.80;99393.28;5017648;28;20077;-69
2022/01/09 04:11:46;;;;;;;11.60;4.33;;;;;;;-4.52;62.65;99397.78;5031690;28;20048;-68
2022/01/09 04:14:12;;;;;;;13.40;4.93;;;;;;;-4.47;62.50;99392.69;5017072;28;20079;-70
2022/01/09 04:16:40;;;;;;;17.13;5.20;;;;;;;-4.48;62.02;99396.38;5030895;28;20096;-69
2022/01/09 04:19:13;;;;;;;14.90;5.00;;;;;;;-4.48;62.25;99412.38;5019059;28;20507;-69
2022/01/09 04:21:41;;;;;;;14.83;5.23;;;;;;;-4.51;61.69;99392.25;5024067;28;20498;-69
2022/01/09 04:24:09;;;;;;;13.00;5.07;;;;;;;-4.50;61.59;99401.91;5012622;28;20474;-69
2022/01/09 04:26:35;;;;;;;16.10;4.82;;;;;;;-4.51;61.36;99416.28;5020189;28;20100;-69
2022/01/09 04:29:02;;;;;;;12.40;4.87;;;;;;;-4.47;61.27;99406.03;5018230;28;20132;-69
2022/01/09 04:31:29;;;;;;;14.90;4.72;;;;;;;-4.47;61.05;99408.72;5020623;28;20502;-69
2022/01/09 04:33:55;;;;;;;12.03;4.80;;;;;;;-4.46;60.96;99418.38;5020414;28;20058;-69
2022/01/09 04:36:23;;;;;;;14.30;4.53;;;;;;;-4.54;60.84;99395.28;5013494;28;20041;-70
2022/01/09 04:38:50;;;;;;;16.83;5.47;;;;;;;-4.42;60.44;99395.66;5015637;28;20487;-70
2022/01/09 04:41:16;;;;;;;15.52;5.03;;;;;;;-4.57;60.37;99406.31;5032394;28;20064;-70
2022/01/09 04:43:44;;;;;;;13.83;4.83;;;;;;;-4.49;60.54;99389.38;5032971;28;20050;-69
2022/01/09 04:46:17;;;;;;;14.13;4.63;;;;;;;-4.52;60.51;99400.44;5029841;28;20434;-69
2022/01/09 04:48:45;;;;;;;13.70;4.80;;;;;;;-4.53;60.33;99394.25;5032967;28;20077;-70
2022/01/09 04:51:13;;;;;;;12.60;4.60;;;;;;;-4.51;60.15;99408.28;5026889;28;20402;-69
2022/01/09 04:53:41;;;;;;;15.50;5.03;;;;;;;-4.48;59.90;99404.38;5032791;28;20057;-70
2022/01/09 04:56:07;;;;;;;14.20;4.80;;;;;;;-4.45;59.71;99406.69;5029864;28;20052;-71
2022/01/09 04:58:33;;;;;;;17.30;4.97;;;;;;;-4.50;59.50;99417.09;5030589;28;20048;-69
2022/01/09 05:00:59;;;;;;;15.23;4.70;;;;;;;-4.53;59.74;99398.78;5029452;28;20045;-70
2022/01/09 05:03:26;;;;;;;14.85;5.70;;;;;;;-4.59;59.85;99397.69;5018407;28;20430;-72
2022/01/09 05:05:53;;;;;;;12.60;5.40;;;;;;;-4.61;59.94;99391.72;5034363;28;20526;-70
2022/01/09 05:08:19;;;;;;;17.33;4.70;;;;;;;-4.72;59.98;99401.81;5029235;28;20411;-71
2022/01/09 05:10:47;;;;;;;11.70;4.30;;;;;;;-4.71;59.77;99394.66;5027387;28;20111;-72
2022/01/09 05:13:13;;;;;;;13.10;4.70;;;;;;;-4.75;59.77;99412.88;5011357;28;20054;-70
2022/01/09 05:15:39;;;;;;;11.80;4.57;;;;;;;-4.77;59.68;99382.88;5011221;28;20059;-69
2022/01/09 05:18:12;;;;;;;11.43;4.27;;;;;;;-4.74;59.50;99382.50;5025321;28;20080;-69
2022/01/09 05:20:38;;;;;;;15.03;5.50;;;;;;;-4.68;59.35;99388.09;5017137;28;20061;-69
2022/01/09 05:23:05;;;;;;;13.37;4.67;;;;;;;-4.72;59.11;99393.00;5026345;28;20041;-68
2022/01/09 05:25:31;;;;;;;12.93;4.80;;;;;;;-4.76;59.38;99389.88;5021637;28;20073;-68
2022/01/09 05:27:58;;;;;;;12.93;4.70;;;;;;;-4.72;58.87;99391.16;5013926;28;20072;-68
2022/01/09 05:30:24;;;;;;;14.13;4.43;;;;;;;-4.75;58.79;99388.88;5057939;28;20053;-69
2022/01/09 05:32:51;;;;;;;14.03;4.83;;;;;;;-4.79;58.80;99378.75;5030491;28;20053;-69
2022/01/09 05:35:17;;;;;;;14.77;4.40;;;;;;;-4.79;58.70;99400.91;5029200;28;20038;-70
2022/01/09 05:37:43;;;;;;;11.53;4.40;;;;;;;-4.78;58.69;99383.06;5030026;28;20056;-70
2022/01/09 05:40:11;;;;;;;13.07;5.07;;;;;;;-4.82;58.68;99398.63;5030031;28;20068;-70
2022/01/09 05:42:37;;;;;;;14.23;4.55;;;;;;;-4.84;58.52;99377.47;5028486;28;20053;-70
2022/01/09 05:45:07;;;;;;;11.17;4.87;;;;;;;-4.92;58.39;99395.41;5021770;28;20140;-69
2022/01/09 05:47:37;;;;;;;13.70;5.30;;;;;;;-4.88;58.72;99402.84;5031892;28;20077;-69
2022/01/09 05:50:03;;;;;;;16.17;5.57;;;;;;;-4.82;58.28;99400.44;5021711;28;20461;-69
2022/01/09 05:52:30;;;;;;;13.17;4.50;;;;;;;-4.85;58.45;99398.97;5019382;28;20514;-69
2022/01/09 05:54:56;;;;;;;8.93;3.80;;;;;;;-4.92;57.98;99400.72;5012199;28;20057;-69
2022/01/09 05:57:22;;;;;;;16.73;4.80;;;;;;;-4.91;58.13;99400.56;5010817;28;20046;-69
2022/01/09 05:59:48;;;;;;;13.37;4.27;;;;;;;-4.97;58.12;99408.47;5019842;28;20053;-69
2022/01/09 06:02:15;;;;;;;12.40;4.60;;;;;;;-4.96;58.18;99424.25;5026980;28;20456;-70
2022/01/09 06:04:42;;;;;;;12.30;4.28;;;;;;;-4.96;58.21;99408.25;5026327;28;20077;-69
2022/01/09 06:07:12;;;;;;;14.40;5.03;;;;;;;-4.89;57.99;99405.69;5012005;28;20427;-69
2022/01/09 06:09:38;;;;;;;16.97;5.47;;;;;;;-4.85;58.03;99406.97;5011148;28;20073;-69
2022/01/09 06:12:05;;;;;;;15.83;4.43;;;;;;;-4.92;57.76;99409.53;5026663;28;20041;-69
2022/01/09 06:14:35;;;;;;;13.52;5.72;;;;;;;-4.82;57.58;99425.31;5030418;28;20054;-70
2022/01/09 06:17:01;;;;;;;14.20;4.67;;;;;;;-4.84;57.55;99413.97;5031295;28;20068;-69
2022/01/09 06:19:29;;;;;;;15.43;5.20;;;;;;;-4.83;57.54;99412.97;5031385;28;20115;-69
2022/01/09 06:21:55;;;;;;;15.05;4.97;;;;;;;-4.79;57.36;99424.09;5013129;28;20046;-71
2022/01/09 06:24:21;;;;;;;12.13;4.50;;;;;;;-4.86;57.28;99405.31;5018319;28;20168;-71
2022/01/09 06:26:47;;;;;;;13.23;4.70;;;;;;;-4.80;57.63;99412.59;5024232;28;20049;-70
2022/01/09 06:29:13;;;;;;;15.50;5.40;;;;;;;-4.84;57.00;99403.28;5018640;28;20792;-68
2022/01/09 06:31:39;;;;;;;16.20;5.13;;;;;;;-4.80;57.06;99407.28;5027914;28;20136;-68
2022/01/09 06:34:06;;;;;;;13.57;4.83;;;;;;;-4.82;56.83;99419.97;5026303;28;20045;-68
2022/01/09 06:36:33;;;;;;;13.63;4.80;;;;;;;-4.86;56.94;99413.31;5010311;28;20045;-67
2022/01/09 06:39:00;;;;;;;14.98;5.05;;;;;;;-4.89;56.86;99413.69;5022468;28;20150;-68
2022/01/09 06:41:27;;;;;;;12.17;4.23;;;;;;;-4.88;56.93;99413.53;5010755;28;20068;-68
2022/01/09 06:43:53;;;;;;;;;;;;;;;-4.82;56.91;99409.31;5012076;28;20050;-68
2022/01/09 06:46:19;;;;;;;15.27;5.07;;;;;;;-4.91;56.93;99402.38;5034271;28;20270;-68
2022/01/09 06:48:46;;;;;;;18.77;5.43;;;;;;;-4.84;56.57;99398.81;5026892;28;20049;-67
2022/01/09 06:51:12;;;;;;;14.77;5.40;;;;;;;-4.82;56.78;99408.47;4996857;28;20046;-68
2022/01/09 06:53:40;;;;;;;13.07;4.80;;;;;;;-4.84;56.83;99411.28;5041122;28;20053;-67
2022/01/09 06:56:06;;;;;;;13.80;4.97;;;;;;;-4.89;56.99;99405.69;5031605;28;20050;-67
2022/01/09 06:58:33;;;;;;;13.10;4.53;;;;;;;-4.82;56.43;99414.63;5022242;28;20487;-67
2022/01/09 07:00:59;;;;;;;14.13;5.10;;;;;;;-4.84;56.21;99416.63;5023106;28;20058;-67
2022/01/09 07:03:25;;;;;;;13.43;5.03;;;;;;;-4.86;56.62;99424.84;5017854;28;20050;-67
2022/01/09 07:05:52;;;;;;;18.50;5.13;;;;;;;-4.81;56.19;99412.78;5031609;28;20413;-66
2022/01/09 07:08:19;;;;;;;15.43;5.72;;;;;;;-4.80;56.20;99403.75;5031789;28;20056;-67
2022/01/09 07:10:46;;;;;;;12.57;4.90;;;;;;;-4.79;56.41;99406.25;5033046;28;20049;-68
2022/01/09 07:13:12;;;;;;;14.07;4.65;;;;;;;-4.74;55.96;99398.53;5029348;28;20050;-67
2022/01/09 07:15:39;;;;;;;12.40;4.47;;;;;;;-4.75;55.77;99396.06;5028724;28;20072;-68
2022/01/09 07:18:05;;;;;;;14.77;4.63;;;;;;;-4.76;55.84;99413.88;5007081;28;20119;-67
2022/01/09 07:20:31;;;;;;;15.70;4.67;;;;;;;-4.67;55.77;99409.28;5020305;28;20107;-68
2022/01/09 07:22:58;;;;;;;13.97;4.07;;;;;;;-4.65;55.58;99393.91;5033964;28;20042;-68
2022/01/09 07:25:23;;;;;;;14.63;5.00;;;;;;;-4.64;55.73;99400.09;5007782;28;20053;-68
2022/01/09 07:27:51;;;;;;;13.60;4.57;;;;;;;-4.67;55.69;99406.63;5029179;28;20080;-68
2022/01/09 07:30:18;;;;;;;;;;;;;;;-4.62;55.72;99398.06;5022935;28;20503;-68
2022/01/09 07:32:45;;;;;;;16.83;4.27;;;;;;;-4.64;55.55;99379.56;5018619;28;19932;-71
2022/01/09 07:35:11;;;;;;;13.32;4.70;;;;;;;-4.65;55.61;99398.44;5029966;28;20481;-71
2022/01/09 07:37:37;;;;;;;10.53;4.27;;;;;;;-4.62;55.50;99411.41;5027458;28;20053;-72
2022/01/09 07:40:04;;;;;;;19.33;5.13;;;;;;;-4.65;55.81;99409.09;5014840;28;20042;-72
2022/01/09 07:42:30;;;;;;;13.00;4.63;;;;;;;-4.61;55.95;99394.38;5015076;28;20514;-72
2022/01/09 07:44:59;;;;;;;12.20;5.10;;;;;;;-4.56;55.68;99376.81;5022716;28;20344;-71
2022/01/09 07:47:26;;;;;;;13.10;5.33;;;;;;;-4.60;55.45;99372.84;5027631;28;20502;-69
2022/01/09 07:49:52;;;;;;;13.83;4.50;;;;;;;-4.47;55.77;99393.53;5039613;28;20054;-70
2022/01/09 07:52:18;;;;;;;14.67;5.23;;;;;;;-4.53;55.87;99388.13;5012333;28;20148;-69
2022/01/09 07:54:44;;;;;;;17.13;5.23;;;;;;;-4.48;55.77;99407.06;5033316;28;20540;-71
2022/01/09 07:57:11;;;;;;;14.17;5.10;;;;;;;-4.49;55.70;99416.91;5031059;28;20136;-70
2022/01/09 07:59:36;;;;;;;14.53;4.80;;;;;;;-4.49;55.86;99424.09;5032149;28;20045;-71
2022/01/09 08:02:05;;;;;;;13.47;5.70;;;;;;;-4.48;56.15;99409.72;5029238;28;20041;-70
2022/01/09 08:04:31;;;;;;;13.17;4.70;;;;;;;-4.47;56.07;99411.38;5032180;28;20136;-72
2022/01/09 08:06:57;;;;;;;18.80;5.77;;;;;;;-4.46;56.10;99410.34;5011545;28;20073;-70
2022/01/09 08:09:23;;;;;;;14.53;5.20;;;;;;;-4.58;56.13;99418.88;5032478;28;20045;-71
2022/01/09 08:11:50;;;;;;;17.97;5.70;;;;;;;-4.48;56.19;99413.22;5027823;28;20068;-71
2022/01/09 08:14:16;;;;;;;14.13;5.10;;;;;;;-4.41;56.01;99424.00;5029548;28;20500;-70
2022/01/09 08:16:42;;;;;;;14.27;4.73;;;;;;;-4.45;55.97;99396.84;5027335;28;20041;-69
2022/01/09 08:19:09;;;;;;;15.70;5.47;;;;;;;-4.31;55.82;99397.00;5030775;28;20064;-70
2022/01/09 08:21:36;;;;;;;18.25;5.10;;;;;;;-4.31;55.66;99405.00;5028241;28;20093;-70
2022/01/09 08:24:02;;;;;;;14.27;4.90;;;;;;;-4.36;55.51;99400.22;5027494;28;20052;-69
2022/01/09 08:26:28;;;;;;;14.77;4.93;;;;;;;-4.31;55.42;99391.66;5041330;28;20046;-69
2022/01/09 08:28:55;;;;;;;16.83;4.87;;;;;;;-4.35;55.16;99391.22;5028208;28;20136;-70
2022/01/09 08:31:21;;;;;;;16.30;5.47;;;;;;;-4.35;55.35;99393.06;5040806;28;20068;-69
2022/01/09 08:33:47;;;;;;;13.07;4.30;;;;;;;-4.33;54.96;99391.84;5015372;28;20048;-71
2022/01/09 08:36:16;;;;;;;11.90;4.57;;;;;;;-4.36;54.92;99392.22;5009182;28;20065;-71
2022/01/09 08:38:43;;;;;;;15.90;5.07;;;;;;;-4.29;54.69;99405.66;5033811;28;20467;-66
2022/01/09 08:41:09;;;;;;;12.60;4.73;;;;;;;-4.26;54.63;99389.25;5011113;28;20054;-66
2022/01/09 08:43:36;;;;;;;18.80;6.00;;;;;;;-4.29;55.03;99387.81;5015976;28;20050;-67
2022/01/09 08:46:02;;;;;;;13.65;5.20;;;;;;;-4.23;54.93;99388.06;5014357;28;20053;-68
2022/01/09 08:48:28;;;;;;;12.77;4.53;;;;;;;-4.21;54.26;99391.38;5016984;28;20080;-70
2022/01/09 08:50:54;;;;;;;13.27;4.97;;;;;;;-4.24;54.19;99381.06;5028942;28;20099;-70
2022/01/09 08:53:22;;;;;;;14.10;4.60;;;;;;;-4.27;54.18;99390.25;5028231;28;20107;-77
2022/01/09 08:55:53;;;;;;;15.90;5.13;;;;;;;-4.26;54.43;99386.59;5032882;28;20065;-67
2022/01/09 08:58:19;;;;;;;17.37;4.60;;;;;;;-4.17;54.23;99387.28;4998544;28;20064;-69
2022/01/09 09:00:45;;;;;;;13.93;4.60;;;;;;;-4.17;53.98;99377.44;5024178;28;20042;-73
2022/01/09 09:03:12;;;;;;;18.27;4.40;;;;;;;-4.24;54.10;99381.06;5026249;28;20042;-73
2022/01/09 09:05:38;;;;;;;13.23;4.77;;;;;;;-4.15;54.10;99387.94;5013124;28;20049;-72
2022/01/09 09:08:04;;;;;;;13.80;4.37;;;;;;;-4.16;54.19;99394.28;5033984;28;20124;-70
2022/01/09 09:10:32;;;;;;;12.30;4.53;;;;;;;-4.15;53.93;99393.28;5033898;28;20114;-71
2022/01/09 09:12:59;;;;;;;16.85;5.20;;;;;;;-4.12;53.83;99382.22;5041542;28;20053;-72
2022/01/09 09:15:25;;;;;;;16.77;5.50;;;;;;;-4.10;54.08;99376.69;5029247;28;20076;-72
2022/01/09 09:17:52;;;;;;;15.07;5.30;;;;;;;-4.09;53.88;99379.19;5030770;28;20054;-73
2022/01/09 09:20:18;;;;;;;15.30;5.25;;;;;;;-4.08;53.79;99374.66;5031801;28;20055;-72
2022/01/09 09:22:45;;;;;;;12.13;4.07;;;;;;;-4.11;53.77;99364.34;5023793;28;20096;-71
2022/01/09 09:25:11;;;;;;;13.23;4.63;;;;;;;-4.06;53.36;99357.44;5017947;28;20042;-72
2022/01/09 09:27:39;;;;;;;12.87;4.80;;;;;;;-3.96;53.25;99367.78;5026844;28;20465;-71
2022/01/09 09:30:06;;;;;;;16.67;5.20;;;;;;;-3.93;53.46;99362.06;5016697;28;20140;-72
2022/01/09 09:32:32;;;;;;;14.30;4.57;;;;;;;-3.91;53.45;99377.91;5044294;28;20848;-73
2022/01/09 09:34:59;;;;;;;23.03;6.50;;;;;;;-3.93;53.11;99364.72;5012853;28;20395;-72
2022/01/09 09:37:27;;;;;;;18.73;6.90;;;;;;;-3.87;53.45;99371.16;5000434;28;20076;-72
2022/01/09 09:39:54;;;;;;;28.27;7.87;;;;;;;-3.81;53.39;99373.09;5027359;28;20042;-71
2022/01/09 09:42:20;;;;;;;16.93;5.13;;;;;;;-3.91;53.50;99354.69;5010851;28;20053;-74
2022/01/09 09:44:48;;;;;;;21.55;6.53;;;;;;;-3.88;53.77;99362.34;5023877;28;20080;-71
2022/01/09 09:47:17;;;;;;;24.65;5.78;;;;;;;-3.76;53.54;99373.34;5011222;28;20055;-71
2022/01/09 09:49:45;;;;;;;19.40;6.27;;;;;;;-3.74;53.40;99365.13;5039083;28;20045;-71
2022/01/09 09:52:15;;;;;;;;;;;;;;;-3.74;53.10;99378.50;5025645;28;20041;-73
2022/01/09 09:54:45;;;;;;;24.37;6.73;;;;;;;-3.79;52.80;99363.03;5043209;28;20290;-73
2022/01/09 09:57:14;;;;;;;23.63;7.17;;;;;;;-3.83;52.76;99350.25;5031296;28;20060;-73
2022/01/09 09:59:40;;;;;;;19.07;5.90;;;;;;;-3.76;53.06;99362.66;5027037;28;20052;-72
2022/01/09 10:02:12;;;;;;;19.57;5.83;;;;;;;-3.74;53.05;99363.28;5028962;28;20072;-72
2022/01/09 10:04:58;;;;;;;17.13;5.90;;;;;;;-3.79;52.53;99359.53;5012351;28;20058;-73
2022/01/09 10:07:25;;;;;;;19.77;6.00;;;;;;;-3.81;52.66;99358.88;5010640;28;20133;-72
2022/01/09 10:09:52;;;;;;;19.83;5.43;;;;;;;-3.89;52.69;99352.66;5009613;28;20054;-73
2022/01/09 10:12:31;;;;;;;18.95;5.80;;;;;;;-3.79;52.16;99354.19;5027969;28;20045;-74
2022/01/09 10:15:05;;;;;;;19.00;5.67;;;;;;;-3.83;51.78;99345.72;5030251;28;20057;-73
2022/01/09 10:17:35;;;;;;;23.33;7.20;;;;;;;-3.79;52.11;99348.84;5028163;28;20399;-73
2022/01/09 10:20:08;;;;;;;23.73;6.37;;;;;;;-3.78;51.84;99351.31;5026049;28;20048;-73
2022/01/09 10:22:44;;;;;;;21.03;6.33;;;;;;;-3.79;52.03;99349.69;5026163;28;20056;-73
2022/01/09 10:25:30;;;;;;;17.53;5.87;;;;;;;-3.74;52.22;99349.09;5011510;28;20614;-73
2022/01/09 10:28:00;;;;;;;18.20;6.38;;;;;;;-3.75;52.47;99342.06;5010362;28;20091;-73
2022/01/09 10:30:31;;;;;;;22.90;6.70;;;;;;;-3.73;52.31;99345.41;5015681;28;20046;-73
2022/01/09 10:33:04;;;;;;;20.60;6.70;;;;;;;-3.70;52.08;99345.03;5021549;28;20041;-73
2022/01/09 10:35:30;;;;;;;20.47;6.13;;;;;;;-3.70;52.14;99334.34;5019936;28;20049;-73
2022/01/09 10:38:11;;;;;;;15.63;5.37;;;;;;;-3.72;52.32;99339.84;5017363;28;20046;-73
2022/01/09 10:40:38;;;;;;;18.53;5.70;;;;;;;-3.70;52.02;99332.47;5034081;28;20319;-72
2022/01/09 10:43:11;;;;;;;19.08;6.47;;;;;;;-3.62;52.16;99352.06;5035292;28;20483;-71
2022/01/09 10:45:39;;;;;;;23.87;7.67;;;;;;;-3.64;52.00;99351.44;5028015;28;20146;-71
2022/01/09 10:48:10;;;;;;;24.27;8.07;;;;;;;-3.66;51.68;99335.59;5026712;28;20065;-72
2022/01/09 10:50:40;;;;;;;19.10;6.43;;;;;;;-3.70;51.61;99337.00;5021716;28;20045;-71
2022/01/09 10:53:20;;;;;;;21.13;6.00;;;;;;;-3.66;51.60;99332.91;5020212;28;20132;-72
2022/01/09 10:55:59;;;;;;;18.13;6.90;;;;;;;-3.70;51.61;99328.97;5021402;28;20136;-73
2022/01/09 10:58:26;;;;;;;17.73;6.10;;;;;;;-3.77;51.42;99333.44;5013111;28;20056;-71
2022/01/09 11:01:11;;;;;;;21.48;6.22;;;;;;;-3.85;51.17;99308.50;5028717;28;20045;-72
2022/01/09 11:03:39;;;;;;;22.53;6.63;;;;;;;-3.75;51.31;99320.69;5034370;28;20045;-72
2022/01/09 11:06:07;;;;;;;28.20;7.63;;;;;;;-3.78;51.10;99315.75;5026183;28;20041;-72
2022/01/09 11:08:34;;;;;;;25.03;6.80;;;;;;;-3.74;51.49;99314.38;5022444;28;20050;-72
2022/01/09 11:11:02;;;;;;;19.00;6.25;;;;;;;-3.75;51.76;99334.06;5018161;28;20074;-71
2022/01/09 11:13:29;;;;;;;;;;;;;;;-3.75;51.50;99305.50;5017853;28;20140;-71
2022/01/09 11:18:45;;;;;;;12.57;4.60;;;;;;;-3.70;51.29;99304.94;5023802;28;20088;-72
2022/01/09 11:21:11;;;;;;;14.17;4.67;;;;;;;-3.74;51.08;99311.69;5025895;28;20453;-71
2022/01/09 11:23:50;;;;;;;12.33;4.80;;;;;;;-3.73;50.98;99298.13;5025545;28;20058;-72
2022/01/09 11:26:17;;;;;;;13.53;4.53;;;;;;;-3.69;51.05;99301.25;5020883;28;20046;-72
2022/01/09 11:28:50;;;;;;;15.47;4.93;;;;;;;-3.70;51.52;99304.94;5017538;28;20045;-72
2022/01/09 11:31:30;;;;;;;14.53;4.57;;;;;;;-3.71;51.44;99308.63;5017553;28;20044;-70